Time;durP1;ratioP1;P1;durP2;ratioP2;P2;SDS_P1;SDS_P2;PMS_P1;PMS_P2;Temp;Humidity;BMP_temperature;BMP_pressure;BME280_temperature;BME280_humidity;BME280_pressure;Samples;Min_cycle;Max_cycle;Signal;HPM_P1;HPM_P2
2021/09/02 00:01:31;;;;;;;19.52;9.05;;;15.30;99.90;;;;;;7409194;19;20036;-89
2021/09/02 00:04:01;;;;;;;24.35;10.27;;;15.30;99.90;;;;;;7403309;19;20021;-88
2021/09/02 00:06:30;;;;;;;15.32;10.15;;;15.40;99.90;;;;;;7408669;19;20052;-89
2021/09/02 00:09:00;;;;;;;20.35;10.48;;;15.50;99.90;;;;;;7409401;19;20042;-89
2021/09/02 00:11:29;;;;;;;18.88;9.95;;;15.50;99.90;;;;;;7410981;19;20002;-89
2021/09/02 00:14:01;;;;;;;19.85;10.45;;;15.60;99.90;;;;;;7406546;19;20011;-90
2021/09/02 00:16:32;;;;;;;18.00;9.30;;;15.50;99.90;;;;;;7404746;19;20498;-88
2021/09/02 00:19:04;;;;;;;18.45;9.27;;;15.40;99.90;;;;;;7420549;19;20011;-88
2021/09/02 00:21:34;;;;;;;17.45;10.07;;;15.40;99.90;;;;;;7430100;19;20010;-88
2021/09/02 00:24:03;;;;;;;16.52;10.27;;;15.40;99.90;;;;;;7419042;19;20014;-90
2021/09/02 00:26:43;;;;;;;21.20;9.82;;;15.50;99.90;;;;;;7402225;19;20082;-88
2021/09/02 00:29:16;;;;;;;16.92;9.70;;;15.30;99.90;;;;;;7408835;19;20018;-91
2021/09/02 00:31:45;;;;;;;17.95;10.25;;;15.20;99.90;;;;;;7403162;19;20320;-89
2021/09/02 00:34:16;;;;;;;17.17;10.05;;;15.20;99.90;;;;;;7415372;19;20010;-91
2021/09/02 00:36:45;;;;;;;19.38;10.93;;;15.20;99.90;;;;;;7405853;19;20033;-90
2021/09/02 00:39:15;;;;;;;21.50;11.20;;;15.10;99.90;;;;;;7407069;19;20007;-90
2021/09/02 00:41:46;;;;;;;19.63;11.10;;;15.00;99.90;;;;;;7401798;19;20018;-90
2021/09/02 00:44:34;;;;;;;19.35;10.52;;;14.90;99.90;;;;;;7403788;19;20298;-89
2021/09/02 00:47:05;;;;;;;18.80;10.90;;;14.80;99.90;;;;;;7401065;19;20007;-89
2021/09/02 00:49:39;;;;;;;15.85;10.07;;;14.70;99.90;;;;;;7399699;19;20022;-90
2021/09/02 00:52:15;;;;;;;18.98;11.10;;;14.70;99.90;;;;;;7404240;19;20070;-89
2021/09/02 00:54:49;;;;;;;21.05;10.88;;;14.60;99.90;;;;;;7401557;19;20011;-90
2021/09/02 00:57:22;;;;;;;15.57;9.90;;;14.60;99.90;;;;;;7405219;19;20048;-89
2021/09/02 01:00:02;;;;;;;17.20;10.52;;;14.60;99.90;;;;;;7404561;19;20041;-89
2021/09/02 01:02:33;;;;;;;16.23;10.38;;;14.50;99.90;;;;;;7402895;19;20006;-90
2021/09/02 01:05:13;;;;;;;18.58;10.70;;;14.50;99.90;;;;;;7405358;19;20023;-90
2021/09/02 01:07:45;;;;;;;16.90;9.48;;;14.70;99.90;;;;;;7402200;19;20070;-89
2021/09/02 01:10:19;;;;;;;18.50;10.45;;;14.60;99.90;;;;;;7400544;19;20074;-90
2021/09/02 01:12:50;;;;;;;20.35;10.80;;;14.50;99.90;;;;;;7402236;19;20024;-89
2021/09/02 01:15:27;;;;;;;20.52;10.57;;;14.70;99.90;;;;;;7401985;19;20025;-89
2021/09/02 01:17:59;;;;;;;19.25;10.52;;;14.60;99.90;;;;;;7398421;19;20007;-90
2021/09/02 01:20:32;;;;;;;21.42;10.93;;;14.50;99.90;;;;;;7401399;19;20317;-91
2021/09/02 01:23:04;;;;;;;16.52;10.48;;;14.50;99.90;;;;;;7408730;19;20010;-90
2021/09/02 01:25:40;;;;;;;17.55;10.50;;;14.50;99.90;;;;;;7400758;19;20010;-90
2021/09/02 01:28:13;;;;;;;21.17;10.93;;;14.90;99.90;;;;;;7399458;19;20070;-91
2021/09/02 01:30:44;;;;;;;20.73;11.02;;;15.20;99.90;;;;;;7398686;19;20039;-93
2021/09/02 01:33:16;;;;;;;19.92;10.80;;;15.20;99.90;;;;;;7400337;19;20018;-93
2021/09/02 01:35:48;;;;;;;18.38;9.93;;;15.20;99.90;;;;;;7401299;19;20014;-91
2021/09/02 01:38:17;;;;;;;17.80;10.93;;;15.30;99.90;;;;;;7399594;19;20019;-92
2021/09/02 01:40:49;;;;;;;19.58;10.85;;;15.10;99.90;;;;;;7401077;19;20010;-91
2021/09/02 01:43:20;;;;;;;17.40;9.57;;;14.80;99.90;;;;;;7401388;19;20306;-90
2021/09/02 01:45:50;;;;;;;21.98;11.63;;;14.60;99.90;;;;;;7401971;19;20049;-89
2021/09/02 01:48:21;;;;;;;23.92;11.60;;;14.50;99.90;;;;;;7400251;19;20083;-90
2021/09/02 01:50:51;;;;;;;20.25;11.38;;;14.50;99.90;;;;;;7397895;19;20396;-90
2021/09/02 01:53:21;;;;;;;17.73;10.50;;;14.50;99.90;;;;;;7398940;19;20020;-92
2021/09/02 01:55:54;;;;;;;21.85;11.15;;;14.80;99.90;;;;;;7398125;19;20108;-92
2021/09/02 01:58:23;;;;;;;23.80;11.73;;;14.90;99.90;;;;;;7398800;19;20094;-93
2021/09/02 02:00:53;;;;;;;17.15;10.90;;;15.00;99.90;;;;;;7398494;19;20336;-93
2021/09/02 02:03:29;;;;;;;23.35;12.07;;;14.90;99.90;;;;;;7398971;19;20047;-92
2021/09/02 02:05:58;;;;;;;18.40;11.50;;;14.70;99.90;;;;;;7399583;19;20019;-93
2021/09/02 02:08:29;;;;;;;22.58;11.48;;;14.60;99.90;;;;;;7410940;19;20095;-92
2021/09/02 02:11:01;;;;;;;19.33;11.60;;;14.50;99.90;;;;;;7403997;19;20343;-92
2021/09/02 02:13:31;;;;;;;19.80;11.52;;;14.50;99.90;;;;;;7405829;19;20373;-91
2021/09/02 02:16:00;;;;;;;25.27;11.20;;;14.30;99.90;;;;;;7406099;19;20322;-93
2021/09/02 02:18:30;;;;;;;19.98;11.27;;;14.50;99.90;;;;;;7407096;19;20011;-93
2021/09/02 02:21:00;;;;;;;17.88;11.02;;;14.40;99.90;;;;;;7404358;19;20011;-89
2021/09/02 02:23:31;;;;;;;19.75;12.00;;;14.30;99.90;;;;;;7407332;19;20304;-89
2021/09/02 02:26:09;;;;;;;19.90;10.65;;;14.20;99.90;;;;;;7408858;19;20100;-89
2021/09/02 02:28:40;;;;;;;26.80;12.27;;;14.10;99.90;;;;;;7403842;19;20438;-89
2021/09/02 02:31:11;;;;;;;19.70;11.38;;;14.00;99.90;;;;;;7401697;19;20022;-89
2021/09/02 02:33:40;;;;;;;18.45;11.63;;;14.00;99.90;;;;;;7407652;19;20338;-91
2021/09/02 02:36:11;;;;;;;19.42;11.55;;;14.10;99.90;;;;;;7404814;19;20017;-90
2021/09/02 02:38:43;;;;;;;24.17;12.82;;;14.00;99.90;;;;;;7404808;19;20021;-90
2021/09/02 02:41:15;;;;;;;21.55;12.25;;;14.00;99.90;;;;;;7407598;19;20025;-90
2021/09/02 02:43:48;;;;;;;22.58;11.52;;;14.20;99.90;;;;;;7409759;19;20034;-91
2021/09/02 02:46:18;;;;;;;24.30;10.88;;;14.40;99.90;;;;;;7411502;19;20747;-93
2021/09/02 02:48:48;;;;;;;20.65;11.40;;;14.70;99.90;;;;;;7404392;19;20018;-93
2021/09/02 02:51:19;;;;;;;23.77;11.50;;;14.70;99.90;;;;;;7404853;19;20021;-93
2021/09/02 02:53:53;;;;;;;26.77;12.50;;;14.80;99.90;;;;;;7408815;19;20022;-90
2021/09/02 02:56:28;;;;;;;18.88;12.10;;;14.70;99.90;;;;;;7410886;19;20024;-88
2021/09/02 02:58:59;;;;;;;22.55;12.57;;;14.60;99.90;;;;;;7431545;19;20014;-87
2021/09/02 03:04:24;;;;;;;22.63;12.93;;;14.40;99.90;;;;;;7348464;19;20034;-89
2021/09/02 03:12:49;;;;;;;25.45;13.95;;;14.20;99.90;;;;;;7391445;19;20018;-88
2021/09/02 03:15:20;;;;;;;25.80;13.90;;;14.10;99.90;;;;;;7422140;19;20007;-87
2021/09/02 03:17:49;;;;;;;28.75;15.75;;;14.10;99.90;;;;;;7416251;19;20019;-89
2021/09/02 03:20:19;;;;;;;24.88;14.30;;;14.10;99.90;;;;;;7423132;19;20010;-90
2021/09/02 03:22:50;;;;;;;27.95;15.55;;;14.00;99.90;;;;;;7433988;19;20047;-85
2021/09/02 03:25:21;;;;;;;26.75;16.25;;;14.00;99.90;;;;;;7433930;19;20009;-87
2021/09/02 03:30:49;;;;;;;28.70;15.57;;;13.90;99.90;;;;;;7383728;19;20029;-93
2021/09/02 03:36:15;;;;;;;27.70;15.43;;;13.90;99.90;;;;;;7374353;19;20014;-86
2021/09/02 03:38:45;;;;;;;23.55;15.57;;;13.80;99.90;;;;;;7427444;19;20014;-86
2021/09/02 03:41:15;;;;;;;28.27;15.77;;;13.90;99.90;;;;;;7422232;19;20062;-87
2021/09/02 03:43:45;;;;;;;24.95;14.60;;;13.90;99.90;;;;;;7412671;19;20007;-89
2021/09/02 03:46:16;;;;;;;27.10;15.40;;;14.00;99.90;;;;;;7428362;19;20002;-90
2021/09/02 03:48:47;;;;;;;27.55;15.93;;;14.00;99.90;;;;;;7424991;19;20018;-88
2021/09/02 03:51:16;;;;;;;24.63;15.60;;;14.00;99.90;;;;;;7415078;19;20070;-90
2021/09/02 03:53:46;;;;;;;27.42;15.30;;;14.00;99.90;;;;;;7405191;19;20433;-91
2021/09/02 03:56:16;;;;;;;30.52;15.77;;;14.00;99.90;;;;;;7403669;19;20309;-93
2021/09/02 03:58:45;;;;;;;27.35;14.48;;;14.10;99.90;;;;;;7402364;19;20082;-92
2021/09/02 04:01:17;;;;;;;28.52;15.48;;;14.10;99.90;;;;;;7402679;19;20015;-93
2021/09/02 04:03:49;;;;;;;29.13;15.43;;;14.10;99.90;;;;;;7406156;19;20014;-90
2021/09/02 04:06:19;;;;;;;26.23;15.73;;;14.20;99.90;;;;;;7404490;19;20036;-88
2021/09/02 04:08:50;;;;;;;33.08;15.20;;;14.20;99.90;;;;;;7403272;19;20016;-90
2021/09/02 04:11:21;;;;;;;27.98;15.68;;;14.20;99.90;;;;;;7401935;19;20297;-92
2021/09/02 04:13:51;;;;;;;30.13;16.30;;;14.10;99.90;;;;;;7402843;19;20439;-91
2021/09/02 04:16:23;;;;;;;33.83;14.80;;;14.10;99.90;;;;;;7403632;19;20006;-91
2021/09/02 04:18:54;;;;;;;32.17;16.50;;;14.10;99.90;;;;;;7401867;19;20066;-90
2021/09/02 04:21:24;;;;;;;30.75;16.52;;;14.20;99.90;;;;;;7404162;19;20011;-90
2021/09/02 04:23:54;;;;;;;26.90;14.73;;;14.10;99.90;;;;;;7413376;19;20018;-92
2021/09/02 04:26:23;;;;;;;26.52;15.32;;;14.10;99.90;;;;;;7420331;19;20010;-93
2021/09/02 04:28:52;;;;;;;26.45;16.00;;;14.10;99.90;;;;;;7418827;19;20297;-91
2021/09/02 04:31:27;;;;;;;29.15;15.23;;;14.00;99.90;;;;;;7411473;19;20010;-91
2021/09/02 04:33:56;;;;;;;29.80;18.02;;;14.10;99.90;;;;;;7416304;19;20055;-93
2021/09/02 04:36:29;;;;;;;22.52;15.10;;;14.00;99.90;;;;;;7403749;19;20021;-92
2021/09/02 04:38:59;;;;;;;27.30;15.07;;;13.80;99.90;;;;;;7406766;19;20428;-90
2021/09/02 04:41:28;;;;;;;31.23;15.38;;;13.80;99.90;;;;;;7407766;19;20036;-91
2021/09/02 04:43:58;;;;;;;23.58;14.32;;;13.80;99.90;;;;;;7418167;19;20067;-89
2021/09/02 04:46:30;;;;;;;26.90;14.98;;;13.70;99.90;;;;;;7428978;19;19998;-92
2021/09/02 04:49:05;;;;;;;23.83;14.88;;;13.90;99.90;;;;;;7420396;19;20428;-93
2021/09/02 04:51:34;;;;;;;26.13;15.02;;;13.90;99.90;;;;;;7403391;19;20333;-91
2021/09/02 04:54:06;;;;;;;28.67;15.60;;;14.10;99.90;;;;;;7403822;19;20015;-92
2021/09/02 04:56:35;;;;;;;24.25;15.55;;;14.10;99.90;;;;;;7403801;19;20015;-92
2021/09/02 04:59:04;;;;;;;29.15;16.27;;;14.20;99.90;;;;;;7399964;19;20053;-92
2021/09/02 05:01:39;;;;;;;26.58;14.65;;;14.20;99.90;;;;;;7407306;19;20014;-93
2021/09/02 05:04:10;;;;;;;25.90;15.23;;;14.20;99.90;;;;;;7402501;19;20460;-89
2021/09/02 05:06:39;;;;;;;24.70;15.40;;;14.20;99.90;;;;;;7401826;19;20014;-87
2021/09/02 05:09:09;;;;;;;28.75;14.60;;;14.10;99.90;;;;;;7408322;19;20086;-87
2021/09/02 05:11:41;;;;;;;27.73;15.60;;;14.10;99.90;;;;;;7416678;19;20036;-87
2021/09/02 05:14:11;;;;;;;28.58;16.17;;;14.00;99.90;;;;;;7409565;19;20425;-86
2021/09/02 05:16:44;;;;;;;29.42;14.88;;;14.10;99.90;;;;;;7411735;19;20006;-88
2021/09/02 05:19:16;;;;;;;26.60;15.43;;;14.00;99.90;;;;;;7404149;19;20358;-89
2021/09/02 05:21:50;;;;;;;26.40;15.40;;;14.00;99.90;;;;;;7407033;19;20010;-89
2021/09/02 05:24:20;;;;;;;23.88;14.27;;;14.00;99.90;;;;;;7400636;19;20006;-92
2021/09/02 05:26:52;;;;;;;28.70;16.08;;;13.90;99.90;;;;;;7401070;19;20026;-92
2021/09/02 05:29:21;;;;;;;30.13;15.23;;;13.90;99.90;;;;;;7406237;19;20044;-92
2021/09/02 05:31:53;;;;;;;25.40;15.98;;;13.90;99.90;;;;;;7402922;19;20721;-92
2021/09/02 05:34:23;;;;;;;30.85;16.45;;;14.00;99.90;;;;;;7407546;19;20015;-91
2021/09/02 05:36:57;;;;;;;28.40;15.38;;;14.00;99.90;;;;;;7400600;19;20044;-91
2021/09/02 05:39:28;;;;;;;23.02;14.13;;;14.00;99.90;;;;;;7407554;19;20528;-92
2021/09/02 05:42:01;;;;;;;24.30;14.00;;;14.10;99.90;;;;;;7406509;19;20338;-92
2021/09/02 05:44:35;;;;;;;29.42;14.07;;;14.10;99.90;;;;;;7404913;19;20023;-91
2021/09/02 05:47:11;;;;;;;30.15;14.95;;;14.20;99.90;;;;;;7405111;19;20433;-89
2021/09/02 05:49:44;;;;;;;28.95;14.15;;;14.40;99.90;;;;;;7403407;19;20031;-90
2021/09/02 05:52:14;;;;;;;26.33;14.75;;;14.60;99.90;;;;;;7401741;19;20073;-90
2021/09/02 05:54:43;;;;;;;21.20;11.57;;;14.80;99.90;;;;;;7399279;19;20418;-90
2021/09/02 05:57:20;;;;;;;25.08;13.75;;;15.10;99.90;;;;;;7401454;19;20011;-90
2021/09/02 05:59:50;;;;;;;22.52;12.50;;;15.30;99.90;;;;;;7401025;19;20018;-90
2021/09/02 06:02:22;;;;;;;25.55;12.90;;;15.50;99.90;;;;;;7400521;19;20429;-89
2021/09/02 06:04:51;;;;;;;23.60;11.88;;;15.50;99.90;;;;;;7404698;19;20011;-89
2021/09/02 06:07:20;;;;;;;19.83;11.68;;;15.50;99.90;;;;;;7408488;19;20011;-96
2021/09/02 06:09:50;;;;;;;21.17;11.65;;;15.60;99.90;;;;;;7424027;19;20013;-96
2021/09/02 06:20:51;;;;;;;21.10;9.65;;;16.20;99.90;;;;;;7395323;19;20104;-96
2021/09/02 06:23:21;;;;;;;22.65;10.68;;;16.30;99.90;;;;;;7412809;19;20010;-96
2021/09/02 06:34:37;;;;;;;21.40;10.50;;;16.50;99.90;;;;;;7287003;19;21381;31
2021/09/02 06:40:15;;;;;;;20.00;9.95;;;16.70;99.90;;;;;;7406063;19;20042;-92
2021/09/02 06:42:47;;;;;;;23.23;10.88;;;16.80;99.90;;;;;;7417666;19;20011;-89
2021/09/02 06:45:19;;;;;;;24.00;10.43;;;16.90;99.90;;;;;;7407160;19;20015;-89
2021/09/02 06:47:49;;;;;;;18.42;9.50;;;16.90;99.90;;;;;;7403907;19;20010;-89
2021/09/02 06:50:21;;;;;;;22.55;10.70;;;16.90;99.90;;;;;;7399183;19;20014;-89
2021/09/02 06:52:50;;;;;;;18.98;9.98;;;16.90;99.90;;;;;;7399698;19;20453;-88
2021/09/02 06:58:18;;;;;;;23.42;10.52;;;16.90;99.90;;;;;;7209410;19;21868;-89
2021/09/02 07:00:53;;;;;;;18.70;9.45;;;17.00;99.90;;;;;;7407865;19;20006;-89
2021/09/02 07:03:25;;;;;;;19.50;10.55;;;17.00;99.90;;;;;;7412444;19;20015;-89
2021/09/02 07:05:54;;;;;;;19.08;11.40;;;17.00;99.90;;;;;;7409416;19;20009;-89
2021/09/02 07:08:23;;;;;;;24.05;10.02;;;17.10;99.90;;;;;;7405210;19;20022;-89
2021/09/02 07:10:53;;;;;;;22.48;9.80;;;17.10;99.90;;;;;;7404556;19;20002;-91
2021/09/02 07:13:25;;;;;;;21.40;9.93;;;17.20;99.90;;;;;;7401854;19;20014;-89
2021/09/02 07:15:55;;;;;;;17.02;10.00;;;17.30;99.90;;;;;;7404306;19;20003;-87
2021/09/02 07:18:25;;;;;;;26.33;11.65;;;17.20;99.90;;;;;;7409907;19;20002;-89
2021/09/02 07:20:55;;;;;;;20.80;10.35;;;17.30;99.90;;;;;;7406105;19;20043;-88
2021/09/02 07:23:24;;;;;;;22.30;10.23;;;17.30;99.90;;;;;;7404940;19;20074;-89
2021/09/02 07:25:53;;;;;;;19.95;10.02;;;17.50;99.90;;;;;;7404639;19;20021;-88
2021/09/02 07:28:28;;;;;;;23.70;9.82;;;17.70;99.90;;;;;;7403995;19;20022;-88
2021/09/02 07:31:05;;;;;;;19.55;9.68;;;17.90;99.90;;;;;;7403682;19;20393;-88
2021/09/02 07:33:34;;;;;;;21.23;11.02;;;18.10;99.90;;;;;;7402085;19;20021;-89
2021/09/02 07:36:04;;;;;;;20.27;9.07;;;18.30;99.90;;;;;;7404776;19;20261;-89
2021/09/02 07:38:33;;;;;;;18.25;8.80;;;18.40;99.90;;;;;;7404468;19;20040;-89
2021/09/02 07:41:05;;;;;;;19.27;8.95;;;18.50;99.90;;;;;;7406871;19;20011;-87
2021/09/02 07:43:37;;;;;;;23.20;9.35;;;18.70;99.90;;;;;;7405169;19;20022;-87
2021/09/02 07:46:07;;;;;;;18.77;9.52;;;18.80;99.90;;;;;;7406082;19;20011;-89
2021/09/02 07:48:36;;;;;;;20.90;10.30;;;18.80;99.90;;;;;;7404636;19;20027;-87
2021/09/02 07:51:08;;;;;;;22.85;9.60;;;18.80;99.90;;;;;;7403291;19;20007;-89
2021/09/02 07:53:40;;;;;;;18.60;9.02;;;18.80;99.90;;;;;;7404469;19;20011;-88
2021/09/02 07:56:10;;;;;;;20.42;8.85;;;18.90;99.90;;;;;;7403542;19;20034;-89
2021/09/02 07:58:44;;;;;;;19.80;9.05;;;19.00;99.90;;;;;;7403070;19;20014;-88
2021/09/02 08:01:22;;;;;;;18.15;9.38;;;19.10;99.90;;;;;;7404850;19;20021;-88
2021/09/02 08:03:52;;;;;;;17.63;8.18;;;19.30;99.90;;;;;;7402132;19;20023;-88
2021/09/02 08:06:22;;;;;;;17.90;8.95;;;19.30;99.90;;;;;;7402162;19;20015;-87
2021/09/02 08:08:51;;;;;;;23.15;8.48;;;19.40;99.90;;;;;;7402964;19;20044;-89
2021/09/02 08:11:21;;;;;;;19.75;8.52;;;19.60;99.90;;;;;;7401851;19;20011;-86
2021/09/02 08:13:53;;;;;;;17.60;8.40;;;19.80;99.90;;;;;;7405088;19;20017;-88
2021/09/02 08:16:24;;;;;;;18.98;8.32;;;20.00;99.90;;;;;;7401968;19;20006;-88
2021/09/02 08:18:54;;;;;;;22.25;7.90;;;20.20;99.90;;;;;;7403663;19;20011;-88
2021/09/02 08:21:30;;;;;;;17.27;8.82;;;20.40;99.90;;;;;;7407278;19;20014;-87
2021/09/02 08:24:00;;;;;;;17.40;7.93;;;20.60;99.90;;;;;;7407701;19;20420;-87
2021/09/02 08:26:34;;;;;;;17.20;8.00;;;20.70;99.90;;;;;;7403467;19;20007;-88
2021/09/02 08:29:06;;;;;;;14.70;8.68;;;20.70;99.90;;;;;;7400420;19;20043;-88
2021/09/02 08:31:37;;;;;;;19.83;9.05;;;20.70;99.90;;;;;;7401117;19;20070;-89
2021/09/02 08:34:15;;;;;;;17.15;9.70;;;20.80;99.90;;;;;;7399674;19;20021;-88
2021/09/02 08:36:44;;;;;;;23.73;9.23;;;20.90;99.90;;;;;;7402632;19;20041;-88
2021/09/02 08:39:14;;;;;;;19.00;9.25;;;20.70;99.90;;;;;;7406099;19;20014;-89
2021/09/02 08:41:44;;;;;;;16.55;8.63;;;20.60;99.90;;;;;;7414642;19;20039;-87
2021/09/02 08:44:19;;;;;;;19.17;9.25;;;20.70;99.90;;;;;;7404749;19;20007;-88
2021/09/02 08:46:48;;;;;;;17.63;8.60;;;20.80;99.90;;;;;;7406202;19;20006;-87
2021/09/02 08:49:23;;;;;;;17.45;7.65;;;20.60;99.90;;;;;;7405765;19;20018;-87
2021/09/02 08:51:53;;;;;;;16.92;9.15;;;20.50;99.90;;;;;;7406546;19;20010;-87
2021/09/02 08:54:24;;;;;;;13.18;8.10;;;20.50;99.90;;;;;;7406281;19;20412;-87
2021/09/02 08:56:56;;;;;;;19.38;9.57;;;20.40;99.90;;;;;;7400778;19;20325;-87
2021/09/02 08:59:30;;;;;;;18.75;8.70;;;20.30;99.90;;;;;;7399873;19;20013;-87
2021/09/02 09:02:00;;;;;;;16.63;8.48;;;20.30;99.90;;;;;;7401104;19;20088;-88
2021/09/02 09:04:38;;;;;;;19.58;7.85;;;20.40;99.90;;;;;;7401036;19;20013;-87
2021/09/02 09:07:08;;;;;;;13.85;7.80;;;20.70;99.90;;;;;;7399722;19;20006;-86
2021/09/02 09:09:53;;;;;;;12.25;7.05;;;21.10;99.90;;;;;;7399852;19;20324;-87
2021/09/02 09:12:35;;;;;;;17.20;7.55;;;21.50;99.90;;;;;;7403410;19;20034;-87
2021/09/02 09:15:11;;;;;;;17.92;6.65;;;21.80;99.90;;;;;;7399243;19;20451;-86
2021/09/02 09:17:42;;;;;;;17.42;6.07;;;22.00;99.90;;;;;;7402184;19;20011;-86
2021/09/02 09:20:13;;;;;;;15.35;6.03;;;22.10;99.90;;;;;;7407919;19;20018;-86
2021/09/02 09:22:44;;;;;;;14.75;5.68;;;22.40;99.30;;;;;;7418773;19;20033;-86
2021/09/02 09:25:17;;;;;;;10.40;4.93;;;22.60;98.80;;;;;;7414840;19;20091;-84
2021/09/02 09:27:54;;;;;;;13.45;5.43;;;23.00;97.50;;;;;;7415115;19;20006;-87
2021/09/02 09:30:29;;;;;;;11.57;5.05;;;23.30;96.60;;;;;;7405010;19;20029;-86
2021/09/02 09:33:03;;;;;;;11.48;5.70;;;23.50;95.60;;;;;;7396982;19;20014;-87
2021/09/02 09:35:34;;;;;;;16.50;6.20;;;23.70;95.60;;;;;;7403615;19;20014;-86
2021/09/02 09:38:08;;;;;;;11.13;5.25;;;24.00;94.90;;;;;;7403939;19;20755;-87
2021/09/02 09:40:39;;;;;;;14.75;6.65;;;24.10;94.50;;;;;;7404009;19;20015;-86
2021/09/02 09:43:14;;;;;;;13.43;6.78;;;24.20;93.90;;;;;;7408294;19;20019;-87
2021/09/02 09:45:50;;;;;;;12.35;5.45;;;23.80;94.30;;;;;;7409782;19;20052;-86
2021/09/02 09:48:34;;;;;;;13.02;6.93;;;23.80;94.50;;;;;;7411680;19;20036;-86
2021/09/02 09:51:18;;;;;;;12.88;5.93;;;24.10;93.90;;;;;;7411616;19;20442;-87
2021/09/02 09:53:50;;;;;;;16.00;6.15;;;24.00;93.60;;;;;;7400893;19;20022;-87
2021/09/02 09:56:22;;;;;;;21.40;7.32;;;24.20;93.10;;;;;;7401757;19;20026;-88
2021/09/02 09:58:55;;;;;;;15.98;6.53;;;24.40;92.40;;;;;;7408498;19;20144;-86
2021/09/02 10:01:29;;;;;;;12.50;6.45;;;24.40;91.50;;;;;;7404755;19;20266;-88
2021/09/02 10:03:59;;;;;;;9.93;5.55;;;23.90;91.20;;;;;;7404508;19;20007;-89
2021/09/02 10:06:29;;;;;;;12.18;5.72;;;23.90;91.40;;;;;;7403251;19;20290;-87
2021/09/02 10:08:59;;;;;;;11.35;5.30;;;24.60;90.70;;;;;;7401841;19;20017;-86
2021/09/02 10:11:29;;;;;;;13.77;5.78;;;25.80;87.70;;;;;;7399707;19;20010;-86
2021/09/02 10:13:58;;;;;;;13.65;6.75;;;26.80;83.10;;;;;;7407190;19;20049;-86
2021/09/02 10:16:31;;;;;;;14.43;6.05;;;26.70;81.40;;;;;;7409942;19;20011;-87
2021/09/02 10:19:05;;;;;;;13.10;5.30;;;26.70;80.50;;;;;;7409067;19;20371;-85
2021/09/02 10:21:38;;;;;;;13.27;5.15;;;27.20;79.90;;;;;;7404153;19;20006;-86
2021/09/02 10:24:40;;;;;;;10.88;4.93;;;28.10;77.10;;;;;;7412030;19;20038;-86
2021/09/02 10:27:38;;;;;;;11.07;4.93;;;29.10;74.50;;;;;;7416320;19;20003;-86
2021/09/02 10:30:22;;;;;;;;;;;29.90;71.10;;;;;;7421953;19;20113;-87
2021/09/02 10:32:56;;;;;;;10.73;5.07;;;30.50;66.90;;;;;;7417626;19;20325;-87
2021/09/02 10:35:37;;;;;;;16.15;5.45;;;29.90;66.90;;;;;;7415706;19;20018;-87
2021/09/02 10:38:08;;;;;;;8.07;4.88;;;28.90;68.60;;;;;;7414222;19;20436;-86
2021/09/02 10:40:47;;;;;;;12.57;6.40;;;27.70;70.40;;;;;;7412382;19;20007;-85
2021/09/02 10:43:40;;;;;;;11.55;6.03;;;26.70;72.10;;;;;;7419819;19;20030;-86
2021/09/02 10:46:36;;;;;;;11.25;5.97;;;26.20;74.30;;;;;;7423872;19;20016;-85
2021/09/02 10:49:35;;;;;;;11.02;5.18;;;27.40;73.50;;;;;;7420252;19;20010;-86
2021/09/02 10:52:31;;;;;;;13.07;4.90;;;29.20;68.70;;;;;;7408812;19;20014;-87
2021/09/02 10:55:36;;;;;;;10.95;4.53;;;31.20;64.10;;;;;;7406730;19;20048;-87
2021/09/02 10:58:06;;;;;;;7.65;3.58;;;32.50;59.50;;;;;;7406846;19;20011;-85
2021/09/02 11:00:41;;;;;;;11.25;4.75;;;33.50;58.50;;;;;;7405056;19;20015;-86
2021/09/02 11:03:21;;;;;;;13.50;5.00;;;34.60;55.10;;;;;;7410664;19;20313;-84
2021/09/02 11:05:58;;;;;;;11.55;4.30;;;34.10;54.10;;;;;;7409982;19;20044;-87
2021/09/02 11:08:34;;;;;;;9.98;4.25;;;33.10;55.40;;;;;;7406103;19;20006;-88
2021/09/02 11:11:20;;;;;;;16.65;6.22;;;32.30;57.10;;;;;;7406390;19;20010;-86
2021/09/02 11:13:52;;;;;;;9.52;4.82;;;31.80;56.90;;;;;;7403278;19;20293;-86
2021/09/02 11:16:23;;;;;;;10.18;4.97;;;30.70;58.40;;;;;;7405302;19;20585;-87
2021/09/02 11:18:58;;;;;;;9.98;5.72;;;29.90;60.00;;;;;;7402399;19;20006;-86
2021/09/02 11:21:32;;;;;;;10.05;5.20;;;29.50;60.00;;;;;;7403854;19;20447;-87
2021/09/02 11:24:05;;;;;;;8.80;4.28;;;29.00;61.00;;;;;;7407930;19;19998;-87
2021/09/02 11:26:36;;;;;;;9.23;4.25;;;28.80;62.60;;;;;;7403917;19;20042;-86
2021/09/02 11:29:10;;;;;;;11.15;4.55;;;30.10;59.60;;;;;;7401649;19;20006;-87
2021/09/02 11:31:42;;;;;;;9.05;4.30;;;31.70;56.50;;;;;;7404521;19;20014;-87
2021/09/02 11:34:13;;;;;;;8.63;4.88;;;32.70;54.50;;;;;;7404194;19;20425;-87
2021/09/02 11:36:51;;;;;;;8.32;3.83;;;34.00;52.20;;;;;;7403632;19;20018;-87
2021/09/02 11:39:21;;;;;;;9.05;4.32;;;35.30;51.10;;;;;;7401758;19;20513;-88
2021/09/02 11:41:51;;;;;;;16.08;3.58;;;35.80;48.20;;;;;;7405206;19;20014;-87
2021/09/02 11:44:21;;;;;;;5.90;3.35;;;36.50;47.20;;;;;;7402937;19;20348;-87
2021/09/02 11:46:52;;;;;;;9.25;4.22;;;36.80;44.90;;;;;;7404584;19;20030;-87
2021/09/02 11:49:24;;;;;;;9.13;3.88;;;36.90;44.60;;;;;;7411134;19;20294;-87
2021/09/02 11:52:04;;;;;;;13.25;4.25;;;35.90;45.70;;;;;;7409481;19;20023;-86
2021/09/02 11:54:35;;;;;;;10.57;4.15;;;34.50;48.60;;;;;;7406185;19;20023;-86
2021/09/02 11:57:09;;;;;;;8.43;4.43;;;33.80;50.50;;;;;;7406782;19;20021;-88
2021/09/02 11:59:52;;;;;;;8.75;4.00;;;34.20;49.70;;;;;;7409894;19;20018;-88
2021/09/02 12:02:23;;;;;;;9.52;4.13;;;35.60;49.00;;;;;;7410859;19;20485;-86
2021/09/02 12:04:53;;;;;;;8.00;4.80;;;36.30;47.40;;;;;;7409108;19;20014;-86
2021/09/02 12:07:27;;;;;;;8.68;3.85;;;36.70;46.50;;;;;;7412442;19;20014;-87
2021/09/02 12:10:01;;;;;;;10.05;3.85;;;37.40;45.90;;;;;;7410004;19;20018;-85
2021/09/02 12:12:33;;;;;;;8.27;3.63;;;38.30;44.10;;;;;;7405279;19;20018;-87
2021/09/02 12:15:24;;;;;;;6.20;3.47;;;39.20;43.00;;;;;;7402637;19;20322;-87
2021/09/02 12:18:12;;;;;;;10.75;4.18;;;39.30;42.20;;;;;;7404867;19;20010;-87
2021/09/02 12:20:46;;;;;;;6.57;3.55;;;40.00;41.40;;;;;;7407650;19;20010;-87
2021/09/02 12:23:26;;;;;;;6.10;3.28;;;40.20;40.40;;;;;;7407306;19;20011;-87
2021/09/02 12:26:01;;;;;;;7.13;3.60;;;40.40;40.20;;;;;;7408796;19;20010;-87
2021/09/02 12:28:36;;;;;;;6.55;3.63;;;39.90;40.20;;;;;;7412183;19;20018;-88
2021/09/02 12:31:19;;;;;;;7.05;3.60;;;40.30;40.40;;;;;;7414481;19;20015;-87
2021/09/02 12:34:01;;;;;;;7.53;3.40;;;39.20;40.50;;;;;;7414859;19;20007;-90
2021/09/02 12:36:33;;;;;;;8.20;4.22;;;37.10;41.90;;;;;;7422870;19;20006;-88
2021/09/02 12:39:23;;;;;;;6.72;3.78;;;35.40;43.50;;;;;;7427260;19;20009;-91
2021/09/02 12:42:01;;;;;;;6.53;3.78;;;34.80;44.10;;;;;;7416796;19;20010;-92
2021/09/02 12:44:32;;;;;;;11.95;4.53;;;36.10;43.50;;;;;;7414932;19;20014;-93
2021/09/02 12:47:13;;;;;;;9.65;3.15;;;37.50;42.60;;;;;;7407248;19;20018;-91
2021/09/02 12:49:55;;;;;;;6.75;3.42;;;39.00;41.10;;;;;;7408919;19;20038;-91
2021/09/02 12:52:26;;;;;;;6.80;3.50;;;40.10;39.70;;;;;;7407369;19;20017;-91
2021/09/02 12:55:11;;;;;;;7.40;3.40;;;40.60;39.40;;;;;;7406554;19;20014;-91
2021/09/02 12:57:43;;;;;;;7.28;3.58;;;39.60;39.40;;;;;;7410847;19;20025;-90
2021/09/02 13:00:19;;;;;;;7.32;3.88;;;37.60;41.40;;;;;;7411208;19;20652;-92
2021/09/02 13:02:55;;;;;;;6.72;3.50;;;37.30;42.20;;;;;;7409178;19;20048;-91
2021/09/02 13:05:25;;;;;;;6.10;3.30;;;38.30;40.80;;;;;;7412681;19;20027;-91
2021/09/02 13:07:57;;;;;;;7.53;3.47;;;39.00;40.10;;;;;;7404689;19;20010;-91
2021/09/02 13:10:32;;;;;;;6.03;3.03;;;39.30;39.10;;;;;;7406205;19;20399;-91
2021/09/02 13:13:05;;;;;;;5.93;3.35;;;39.90;38.30;;;;;;7409473;19;20352;-90
2021/09/02 13:15:36;;;;;;;6.75;3.50;;;40.60;37.60;;;;;;7403460;19;20021;-90
2021/09/02 13:18:05;;;;;;;6.18;3.20;;;39.50;38.20;;;;;;7411936;19;20002;-91
2021/09/02 13:20:37;;;;;;;6.75;3.72;;;39.40;38.30;;;;;;7419230;19;20027;-91
2021/09/02 13:23:08;;;;;;;6.75;3.15;;;39.50;38.40;;;;;;7413406;19;20011;-89
2021/09/02 13:25:40;;;;;;;5.63;3.08;;;39.90;38.00;;;;;;7414106;19;20455;-89
2021/09/02 13:28:12;;;;;;;6.30;3.10;;;39.00;38.60;;;;;;7412044;19;20075;-91
2021/09/02 13:30:42;;;;;;;8.02;3.47;;;38.40;39.10;;;;;;7415174;19;20002;-91
2021/09/02 13:33:14;;;;;;;10.05;3.60;;;38.60;39.00;;;;;;7422253;19;20055;-93
2021/09/02 13:35:45;;;;;;;5.70;3.30;;;39.50;38.50;;;;;;7415946;19;20026;-93
2021/09/02 13:38:15;;;;;;;6.07;3.50;;;40.10;37.90;;;;;;7413247;19;20010;-92
2021/09/02 13:40:49;;;;;;;7.18;3.65;;;39.70;37.60;;;;;;7417694;19;20007;-93